Langley AFB, Virginia
Current Conditions -  °F | °C
As of 2:58 PM on Thursday 23 Oct 2014 (Local Time) from KLFI Reporting Station
Overcast Overcast  
Wind Chill: 66°   Ceiling: 4100
Heat Index: 66°   Visibility: 10mi
Dew Point: 49°   Wind: 15mph
Humidity: 54%   Direction: 290°WNW
Pressure: 29.83"   Gusts: NA
Location:  37.0868°N, 76.3631°W
Report Text: KLFI 231858Z AUTO 29013KT 10SM OVC041 19/09 A2983 RMK AO2 SLP108 T01880093 $
Loading
Personal Weather Stations






























Interactive Weather Map
Tropical Storm Tracking
New forecast layout! Learn more

10-Day Weather Forecast

Advertisements
Track Severe Weather on mobile